createdAt,value
2019-05-15T00:00:28.938Z,1025.94
2019-05-15T00:01:28.672Z,1025.90
2019-05-15T00:02:28.277Z,1025.92
2019-05-15T00:03:28.823Z,1025.91
2019-05-15T00:04:28.218Z,1025.92
2019-05-15T00:05:29.198Z,1025.89
2019-05-15T00:06:28.644Z,1025.91
2019-05-15T00:07:29.431Z,1025.92
2019-05-15T00:08:28.811Z,1025.86
2019-05-15T00:09:29.059Z,1025.86
2019-05-15T00:10:28.788Z,1025.82
2019-05-15T00:11:28.796Z,1025.84
2019-05-15T00:12:28.555Z,1025.80
2019-05-15T00:13:28.375Z,1025.84
2019-05-15T00:14:28.823Z,1025.83
2019-05-15T00:15:28.026Z,1025.86
2019-05-15T00:16:29.048Z,1025.82
2019-05-15T00:17:28.365Z,1025.83
2019-05-15T00:18:28.274Z,1025.82
2019-05-15T00:19:28.438Z,1025.80
2019-05-15T00:20:29.476Z,1025.81
2019-05-15T00:21:28.802Z,1025.79
2019-05-15T00:22:29.135Z,1025.80
2019-05-15T00:23:29.115Z,1025.77
2019-05-15T00:24:28.817Z,1025.77
2019-05-15T00:25:28.355Z,1025.81
2019-05-15T00:26:29.908Z,1025.77
2019-05-15T00:27:28.470Z,1025.81
2019-05-15T00:28:28.143Z,1025.76
2019-05-15T00:29:28.910Z,1025.74
2019-05-15T00:30:28.992Z,1025.78
2019-05-15T00:31:29.134Z,1025.77
2019-05-15T00:32:28.246Z,1025.74
2019-05-15T00:33:28.617Z,1025.73
2019-05-15T00:34:28.577Z,1025.67
2019-05-15T00:35:30.268Z,1025.75
2019-05-15T00:36:28.626Z,1025.73
2019-05-15T00:37:28.909Z,1025.72
2019-05-15T00:38:28.084Z,1025.71
2019-05-15T00:39:28.404Z,1025.70
2019-05-15T00:40:28.898Z,1025.72
2019-05-15T00:41:27.930Z,1025.69
2019-05-15T00:42:28.440Z,1025.66
2019-05-15T00:43:29.134Z,1025.68
2019-05-15T00:44:54.192Z,1025.64
2019-05-15T00:45:27.882Z,1025.65
2019-05-15T00:46:50.796Z,1025.60
2019-05-15T00:47:28.686Z,1025.66
2019-05-15T00:48:29.236Z,1025.64
2019-05-15T00:49:28.994Z,1025.59
2019-05-15T00:50:28.731Z,1025.61
2019-05-15T00:51:28.454Z,1025.56
2019-05-15T00:52:28.271Z,1025.61
2019-05-15T00:53:28.314Z,1025.59
2019-05-15T00:54:28.202Z,1025.58
2019-05-15T00:55:28.454Z,1025.60
2019-05-15T00:56:28.452Z,1025.54
2019-05-15T00:57:28.326Z,1025.62
2019-05-15T00:58:28.282Z,1025.65
2019-05-15T00:59:30.033Z,1025.65
2019-05-15T01:00:28.180Z,1025.58
2019-05-15T01:01:28.677Z,1025.64
2019-05-15T01:02:28.645Z,1025.60
2019-05-15T01:03:27.916Z,1025.57
2019-05-15T01:04:28.101Z,1025.56
2019-05-15T01:05:27.995Z,1025.56
2019-05-15T01:06:28.403Z,1025.62
2019-05-15T01:07:28.170Z,1025.57
2019-05-15T01:08:28.429Z,1025.58
2019-05-15T01:09:29.174Z,1025.56
2019-05-15T01:10:28.635Z,1025.52
2019-05-15T01:11:28.605Z,1025.59
2019-05-15T01:12:29.173Z,1025.57
2019-05-15T01:13:28.186Z,1025.51
2019-05-15T01:14:27.842Z,1025.55
2019-05-15T01:15:29.050Z,1025.51
2019-05-15T01:16:28.095Z,1025.54
2019-05-15T01:17:29.076Z,1025.54
2019-05-15T01:18:29.233Z,1025.54
2019-05-15T01:19:28.780Z,1025.53
2019-05-15T01:20:28.578Z,1025.48
2019-05-15T01:21:27.922Z,1025.56
2019-05-15T01:22:28.632Z,1025.56
2019-05-15T01:23:28.184Z,1025.50
2019-05-15T01:24:28.269Z,1025.55
2019-05-15T01:25:28.023Z,1025.51
2019-05-15T01:26:28.258Z,1025.53
2019-05-15T01:27:29.128Z,1025.51
2019-05-15T01:28:28.922Z,1025.47
2019-05-15T01:29:40.597Z,1025.53
2019-05-15T01:30:28.717Z,1025.44
2019-05-15T01:31:29.302Z,1025.51
2019-05-15T01:32:28.396Z,1025.42
2019-05-15T01:33:34.229Z,1025.43
2019-05-15T01:34:29.405Z,1025.45
2019-05-15T01:35:28.737Z,1025.45
2019-05-15T01:36:28.721Z,1025.40
2019-05-15T01:37:28.200Z,1025.40
2019-05-15T01:38:28.070Z,1025.40
2019-05-15T01:39:29.246Z,1025.44
2019-05-15T01:40:28.901Z,1025.41
2019-05-15T01:41:28.314Z,1025.41
2019-05-15T01:42:28.051Z,1025.44
2019-05-15T01:43:29.108Z,1025.49
2019-05-15T01:44:28.720Z,1025.38
2019-05-15T01:45:28.578Z,1025.41
2019-05-15T01:46:28.527Z,1025.47
2019-05-15T01:47:28.192Z,1025.40
2019-05-15T01:48:28.281Z,1025.41
2019-05-15T01:49:28.023Z,1025.44
2019-05-15T01:50:29.100Z,1025.41
2019-05-15T01:51:28.557Z,1025.43
2019-05-15T01:52:27.942Z,1025.39
2019-05-15T01:53:29.106Z,1025.42
2019-05-15T01:54:28.891Z,1025.40
2019-05-15T01:55:28.374Z,1025.44
2019-05-15T01:56:29.120Z,1025.38
2019-05-15T01:57:28.766Z,1025.41
2019-05-15T01:58:28.795Z,1025.46
2019-05-15T01:59:28.394Z,1025.50
2019-05-15T02:00:28.246Z,1025.45
2019-05-15T02:01:28.322Z,1025.47
2019-05-15T02:02:27.996Z,1025.47
2019-05-15T02:03:28.952Z,1025.47
2019-05-15T02:04:28.998Z,1025.45
2019-05-15T02:05:28.286Z,1025.47
2019-05-15T02:06:28.479Z,1025.42
2019-05-15T02:07:28.076Z,1025.43
2019-05-15T02:08:28.433Z,1025.49
2019-05-15T02:09:28.016Z,1025.42
2019-05-15T02:10:29.052Z,1025.44
2019-05-15T02:11:28.937Z,1025.45
2019-05-15T02:12:28.574Z,1025.45
2019-05-15T02:13:28.270Z,1025.44
2019-05-15T02:14:28.521Z,1025.46
2019-05-15T02:15:28.534Z,1025.47
2019-05-15T02:16:28.706Z,1025.48
2019-05-15T02:17:28.274Z,1025.54
2019-05-15T02:18:28.554Z,1025.53
2019-05-15T02:19:28.771Z,1025.49
2019-05-15T02:20:28.961Z,1025.52
2019-05-15T02:21:28.378Z,1025.56
2019-05-15T02:22:28.338Z,1025.52
2019-05-15T02:23:28.118Z,1025.47
2019-05-15T02:24:28.446Z,1025.55
2019-05-15T02:25:34.178Z,1025.51
2019-05-15T02:26:28.253Z,1025.51
2019-05-15T02:27:29.417Z,1025.44
2019-05-15T02:28:28.740Z,1025.48
2019-05-15T02:29:28.590Z,1025.53
2019-05-15T02:30:30.137Z,1025.52
2019-05-15T02:31:30.226Z,1025.49
2019-05-15T02:32:29.900Z,1025.48
2019-05-15T02:33:29.797Z,1025.51
2019-05-15T02:34:29.687Z,1025.49
2019-05-15T02:35:29.279Z,1025.47
2019-05-15T02:36:29.416Z,1025.48
2019-05-15T02:37:29.377Z,1025.47
2019-05-15T02:38:29.601Z,1025.43
2019-05-15T02:39:28.879Z,1025.48
2019-05-15T02:40:29.195Z,1025.46
2019-05-15T02:41:29.579Z,1025.52
2019-05-15T02:42:29.087Z,1025.56
2019-05-15T02:43:29.503Z,1025.55
2019-05-15T02:44:28.950Z,1025.50
2019-05-15T02:45:29.861Z,1025.54
2019-05-15T02:46:29.826Z,1025.50
2019-05-15T02:47:29.120Z,1025.51
2019-05-15T02:48:29.022Z,1025.55
2019-05-15T02:49:29.911Z,1025.55
2019-05-15T02:50:29.006Z,1025.50
2019-05-15T02:51:29.714Z,1025.49
2019-05-15T02:52:29.287Z,1025.58
2019-05-15T02:53:29.620Z,1025.53
2019-05-15T02:54:29.605Z,1025.50
2019-05-15T02:55:29.392Z,1025.52
2019-05-15T02:56:29.098Z,1025.58
2019-05-15T02:57:29.746Z,1025.63
2019-05-15T02:58:28.862Z,1025.54
2019-05-15T02:59:29.121Z,1025.52
2019-05-15T03:00:41.215Z,1025.53
2019-05-15T03:01:28.603Z,1025.50
2019-05-15T03:02:28.621Z,1025.54
2019-05-15T03:03:29.174Z,1025.54
2019-05-15T03:04:28.961Z,1025.54
2019-05-15T03:05:29.366Z,1025.56
2019-05-15T03:06:29.852Z,1025.58
2019-05-15T03:07:29.299Z,1025.51
2019-05-15T03:08:29.721Z,1025.55
2019-05-15T03:09:29.482Z,1025.50
2019-05-15T03:10:29.412Z,1025.57
2019-05-15T03:11:29.232Z,1025.51
2019-05-15T03:12:29.054Z,1025.51
2019-05-15T03:13:26.118Z,1025.55
2019-05-15T03:14:29.077Z,1025.49
2019-05-15T03:15:28.924Z,1025.48
2019-05-15T03:16:26.157Z,1025.48
2019-05-15T03:17:29.410Z,1025.49
2019-05-15T03:18:28.690Z,1025.45
2019-05-15T03:19:26.060Z,1025.41
2019-05-15T03:20:29.471Z,1025.45
2019-05-15T03:21:29.286Z,1025.38
2019-05-15T03:22:29.129Z,1025.44
2019-05-15T03:23:29.188Z,1025.43
2019-05-15T03:24:28.842Z,1025.45
2019-05-15T03:25:25.982Z,1025.39
2019-05-15T03:26:26.024Z,1025.36
2019-05-15T03:27:25.982Z,1025.34
2019-05-15T03:28:29.177Z,1025.34
2019-05-15T03:29:28.913Z,1025.39
2019-05-15T03:30:31.798Z,1025.37
2019-05-15T03:31:47.741Z,1025.32
2019-05-15T03:32:35.836Z,1025.32
2019-05-15T03:33:30.054Z,1025.39
2019-05-15T03:34:30.967Z,1025.34
2019-05-15T03:35:32.225Z,1025.25
2019-05-15T03:36:31.766Z,1025.28
2019-05-15T03:37:32.551Z,1025.29
2019-05-15T03:38:29.712Z,1025.30
2019-05-15T03:39:25.839Z,1025.30
2019-05-15T03:40:25.884Z,1025.31
2019-05-15T03:41:25.829Z,1025.33
2019-05-15T03:42:25.924Z,1025.29
2019-05-15T03:43:25.792Z,1025.33
2019-05-15T03:44:28.431Z,1025.29
2019-05-15T03:45:29.409Z,1025.27
2019-05-15T03:46:28.931Z,1025.33
2019-05-15T03:47:25.766Z,1025.30
2019-05-15T03:48:28.604Z,1025.29
2019-05-15T03:49:25.730Z,1025.25
2019-05-15T03:50:28.713Z,1025.23
2019-05-15T03:51:28.740Z,1025.25
2019-05-15T03:52:25.725Z,1025.26
2019-05-15T03:53:25.696Z,1025.28
2019-05-15T03:54:29.369Z,1025.32
2019-05-15T03:55:25.666Z,1025.28
2019-05-15T03:56:25.688Z,1025.26
2019-05-15T03:57:25.666Z,1025.23
2019-05-15T03:58:28.841Z,1025.25
2019-05-15T03:59:29.165Z,1025.29
2019-05-15T04:00:29.874Z,1025.29
2019-05-15T04:01:34.393Z,1025.27
2019-05-15T04:02:28.767Z,1025.23
2019-05-15T04:03:25.626Z,1025.20
2019-05-15T04:04:25.591Z,1025.23
2019-05-15T04:05:25.641Z,1025.26
2019-05-15T04:06:25.547Z,1025.23
2019-05-15T04:07:25.587Z,1025.23
2019-05-15T04:08:25.528Z,1025.23
2019-05-15T04:09:25.568Z,1025.25
2019-05-15T04:10:28.617Z,1025.22
2019-05-15T04:11:25.497Z,1025.20
2019-05-15T04:12:25.501Z,1025.23
2019-05-15T04:13:25.491Z,1025.17
2019-05-15T04:14:25.469Z,1025.21
2019-05-15T04:15:25.507Z,1025.23
2019-05-15T04:16:25.443Z,1025.18
2019-05-15T04:17:29.228Z,1025.20
2019-05-15T04:18:25.419Z,1025.17
2019-05-15T04:19:25.833Z,1025.20
2019-05-15T04:20:25.406Z,1025.23
2019-05-15T04:21:25.444Z,1025.16
2019-05-15T04:22:25.426Z,1025.18
2019-05-15T04:23:25.459Z,1025.21
2019-05-15T04:24:25.353Z,1025.16
2019-05-15T04:25:25.369Z,1025.10
2019-05-15T04:26:25.337Z,1025.08
2019-05-15T04:27:28.725Z,1025.12
2019-05-15T04:28:25.325Z,1025.16
2019-05-15T04:29:28.724Z,1025.18
2019-05-15T04:30:25.297Z,1025.17
2019-05-15T04:31:25.321Z,1025.12
2019-05-15T04:32:28.602Z,1025.18
2019-05-15T04:33:25.322Z,1025.17
2019-05-15T04:34:25.249Z,1025.21
2019-05-15T04:35:25.242Z,1025.21
2019-05-15T04:36:25.230Z,1025.25
2019-05-15T04:37:25.283Z,1025.25
2019-05-15T04:38:25.218Z,1025.26
2019-05-15T04:39:29.395Z,1025.30
2019-05-15T04:40:25.188Z,1025.22
2019-05-15T04:41:26.200Z,1025.21
2019-05-15T04:42:25.188Z,1025.29
2019-05-15T04:43:44.114Z,1025.24
2019-05-15T04:44:28.903Z,1025.30
2019-05-15T04:45:33.864Z,1025.28
2019-05-15T04:46:29.429Z,1025.35
2019-05-15T04:47:26.158Z,1025.40
2019-05-15T04:48:25.119Z,1025.46
2019-05-15T04:49:25.127Z,1025.53
2019-05-15T04:50:25.077Z,1025.50
2019-05-15T04:51:25.140Z,1025.41
2019-05-15T04:52:25.054Z,1025.42
2019-05-15T04:53:25.058Z,1025.48
2019-05-15T04:54:25.033Z,1025.47
2019-05-15T04:55:25.064Z,1025.52
2019-05-15T04:56:25.012Z,1025.42
2019-05-15T04:57:28.970Z,1025.42
2019-05-15T04:58:26.028Z,1025.39
2019-05-15T04:59:24.988Z,1025.43
2019-05-15T05:00:24.974Z,1025.41
2019-05-15T05:01:24.963Z,1025.42
2019-05-15T05:02:27.185Z,1025.47
2019-05-15T05:03:28.929Z,1025.43
2019-05-15T05:04:24.920Z,1025.42
2019-05-15T05:05:24.927Z,1025.41
2019-05-15T05:06:24.901Z,1025.42
2019-05-15T05:07:24.941Z,1025.47
2019-05-15T05:08:24.902Z,1025.43
2019-05-15T05:09:24.953Z,1025.48
2019-05-15T05:10:24.859Z,1025.43
2019-05-15T05:11:24.865Z,1025.44
2019-05-15T05:12:24.833Z,1025.50
2019-05-15T05:13:24.912Z,1025.47
2019-05-15T05:14:24.810Z,1025.47
2019-05-15T05:15:24.898Z,1025.43
2019-05-15T05:16:24.786Z,1025.40
2019-05-15T05:17:24.815Z,1025.46
2019-05-15T05:18:24.778Z,1025.45
2019-05-15T05:19:24.829Z,1025.46
2019-05-15T05:20:24.742Z,1025.49
2019-05-15T05:21:24.833Z,1025.47
2019-05-15T05:22:24.728Z,1025.48
2019-05-15T05:23:24.774Z,1025.45
2019-05-15T05:24:24.704Z,1025.43
2019-05-15T05:25:24.755Z,1025.36
2019-05-15T05:26:24.677Z,1025.38
2019-05-15T05:27:24.769Z,1025.38
2019-05-15T05:28:24.673Z,1025.44
2019-05-15T05:29:24.680Z,1025.37
2019-05-15T05:30:24.642Z,1025.40
2019-05-15T05:31:24.628Z,1025.35
2019-05-15T05:32:34.353Z,1025.46
2019-05-15T05:33:25.631Z,1025.42
2019-05-15T05:34:24.618Z,1025.44
2019-05-15T05:35:24.589Z,1025.50
2019-05-15T05:36:24.632Z,1025.54
2019-05-15T05:37:24.559Z,1025.57
2019-05-15T05:38:24.677Z,1025.52
2019-05-15T05:39:24.538Z,1025.49
2019-05-15T05:40:24.558Z,1025.50
2019-05-15T05:41:24.526Z,1025.49
2019-05-15T05:42:24.571Z,1025.54
2019-05-15T05:43:24.509Z,1025.52
2019-05-15T05:44:24.585Z,1025.50
2019-05-15T05:45:24.476Z,1025.47
2019-05-15T05:46:24.494Z,1025.47
2019-05-15T05:47:24.452Z,1025.47
2019-05-15T05:48:24.542Z,1025.47
2019-05-15T05:49:24.424Z,1025.48
2019-05-15T05:50:24.527Z,1025.52
2019-05-15T05:51:24.400Z,1025.54
2019-05-15T05:52:24.398Z,1025.47
2019-05-15T05:53:24.378Z,1025.47
2019-05-15T05:54:24.479Z,1025.47
2019-05-15T05:55:24.357Z,1025.52
2019-05-15T05:56:24.460Z,1025.47
2019-05-15T05:57:24.334Z,1025.50
2019-05-15T05:58:24.377Z,1025.46
2019-05-15T05:59:24.330Z,1025.52
2019-05-15T06:00:24.388Z,1025.49
2019-05-15T06:01:24.301Z,1025.49
2019-05-15T06:02:24.396Z,1025.47
2019-05-15T06:03:24.278Z,1025.47
2019-05-15T06:04:24.339Z,1025.49
2019-05-15T06:05:24.247Z,1025.47
2019-05-15T06:06:24.321Z,1025.50
2019-05-15T06:07:24.225Z,1025.43
2019-05-15T06:08:24.232Z,1025.44
2019-05-15T06:09:24.219Z,1025.43
2019-05-15T06:10:24.247Z,1025.44
2019-05-15T06:11:24.181Z,1025.43
2019-05-15T06:12:24.259Z,1025.44
2019-05-15T06:13:24.162Z,1025.37
2019-05-15T06:14:24.202Z,1025.42
2019-05-15T06:15:24.142Z,1025.48
2019-05-15T06:16:24.184Z,1025.45
2019-05-15T06:17:24.118Z,1025.40
2019-05-15T06:18:28.138Z,1025.41
2019-05-15T06:19:24.112Z,1025.43
2019-05-15T06:20:24.111Z,1025.44
2019-05-15T06:21:24.085Z,1025.44
2019-05-15T06:22:24.121Z,1025.47
2019-05-15T06:23:25.907Z,1025.52
2019-05-15T06:24:24.166Z,1025.52
2019-05-15T06:25:24.036Z,1025.55
2019-05-15T06:26:24.046Z,1025.52
2019-05-15T06:27:24.024Z,1025.54
2019-05-15T06:28:24.061Z,1025.48
2019-05-15T06:29:24.009Z,1025.51
2019-05-15T06:30:27.462Z,1025.56
2019-05-15T06:31:24.967Z,1025.56
2019-05-15T06:32:23.986Z,1025.45
2019-05-15T06:33:23.946Z,1025.52
2019-05-15T06:34:24.030Z,1025.51
2019-05-15T06:35:23.931Z,1025.51
2019-05-15T06:36:24.013Z,1025.57
2019-05-15T06:37:23.902Z,1025.57
2019-05-15T06:38:23.929Z,1025.61
2019-05-15T06:39:23.897Z,1025.59
2019-05-15T06:40:23.939Z,1025.62
2019-05-15T06:41:23.855Z,1025.56
2019-05-15T06:42:23.952Z,1025.61
2019-05-15T06:43:23.837Z,1025.58
2019-05-15T06:44:23.895Z,1025.57
2019-05-15T06:45:23.811Z,1025.57
2019-05-15T06:46:23.878Z,1025.51
2019-05-15T06:47:23.790Z,1025.55
2019-05-15T06:48:23.892Z,1025.51
2019-05-15T06:49:23.783Z,1025.50
2019-05-15T06:50:23.804Z,1025.50
2019-05-15T06:51:23.748Z,1025.45
2019-05-15T06:52:23.816Z,1025.50
2019-05-15T06:53:23.728Z,1025.43
2019-05-15T06:54:29.187Z,1025.42
2019-05-15T06:55:23.707Z,1025.47
2019-05-15T06:56:59.683Z,1025.43
2019-05-15T06:57:23.683Z,1025.48
2019-05-15T06:58:25.281Z,1025.43
2019-05-15T06:59:23.691Z,1025.36
2019-05-15T07:00:24.572Z,1025.41
2019-05-15T07:01:23.675Z,1025.37
2019-05-15T07:02:23.630Z,1025.37
2019-05-15T07:03:25.685Z,1025.40
2019-05-15T07:04:23.626Z,1025.36
2019-05-15T07:05:23.598Z,1025.38
2019-05-15T07:06:23.594Z,1025.39
2019-05-15T07:07:23.611Z,1025.37
2019-05-15T07:08:23.563Z,1025.37
2019-05-15T07:09:23.661Z,1025.35
2019-05-15T07:10:23.541Z,1025.29
2019-05-15T07:11:23.639Z,1025.30
2019-05-15T07:12:23.523Z,1025.33
2019-05-15T07:13:23.550Z,1025.32
2019-05-15T07:14:23.512Z,1025.31
2019-05-15T07:15:23.564Z,1025.33
2019-05-15T07:16:23.484Z,1025.33
2019-05-15T07:17:23.482Z,1025.32
2019-05-15T07:18:23.458Z,1025.32
2019-05-15T07:19:23.527Z,1025.34
2019-05-15T07:20:23.430Z,1025.35
2019-05-15T07:21:23.504Z,1025.34
2019-05-15T07:22:23.410Z,1025.33
2019-05-15T07:23:27.078Z,1025.34
2019-05-15T07:24:24.413Z,1025.32
2019-05-15T07:25:23.427Z,1025.34
2019-05-15T07:26:23.365Z,1025.28
2019-05-15T07:27:23.443Z,1025.35
2019-05-15T07:28:23.343Z,1025.38
2019-05-15T07:29:23.352Z,1025.36
2019-05-15T07:30:23.340Z,1025.36
2019-05-15T07:31:23.365Z,1025.33
2019-05-15T07:32:23.307Z,1025.37
2019-05-15T07:33:35.821Z,1025.37
2019-05-15T07:34:24.276Z,1025.35
2019-05-15T07:35:24.368Z,1025.39
2019-05-15T07:36:23.261Z,1025.30
2019-05-15T07:37:23.306Z,1025.33
2019-05-15T07:38:23.237Z,1025.30
2019-05-15T07:39:23.321Z,1025.30
2019-05-15T07:40:23.237Z,1025.27
2019-05-15T07:41:24.256Z,1025.24
2019-05-15T07:42:23.197Z,1025.26
2019-05-15T07:43:23.246Z,1025.25
2019-05-15T07:44:23.170Z,1025.28
2019-05-15T07:45:23.187Z,1025.28
2019-05-15T07:46:23.153Z,1025.30
2019-05-15T07:47:23.175Z,1025.24
2019-05-15T07:48:23.130Z,1025.28
2019-05-15T07:49:23.186Z,1025.27
2019-05-15T07:50:23.120Z,1025.26
2019-05-15T07:51:23.201Z,1025.20
2019-05-15T07:52:23.088Z,1025.21
2019-05-15T07:53:23.079Z,1025.24
2019-05-15T07:54:23.057Z,1025.21
2019-05-15T07:55:23.160Z,1025.20
2019-05-15T07:56:23.035Z,1025.23
2019-05-15T07:57:23.104Z,1025.20
2019-05-15T07:58:23.015Z,1025.20
2019-05-15T07:59:23.053Z,1025.18
2019-05-15T08:00:23.013Z,1025.20
2019-05-15T08:01:23.066Z,1025.17
2019-05-15T08:02:22.970Z,1025.17
2019-05-15T08:03:23.085Z,1025.31
2019-05-15T08:04:29.133Z,1025.21
2019-05-15T08:05:23.960Z,1025.25
2019-05-15T08:06:24.725Z,1025.19
2019-05-15T08:07:22.931Z,1025.22
2019-05-15T08:08:23.012Z,1025.19
2019-05-15T08:09:22.900Z,1025.16
2019-05-15T08:10:22.909Z,1025.16
2019-05-15T08:11:24.841Z,1025.15
2019-05-15T08:12:22.937Z,1025.14
2019-05-15T08:13:22.850Z,1025.07
2019-05-15T08:14:22.954Z,1025.10
2019-05-15T08:15:22.844Z,1025.05
2019-05-15T08:16:22.864Z,1025.03
2019-05-15T08:17:22.809Z,1025.06
2019-05-15T08:18:22.871Z,1025.11
2019-05-15T08:19:22.802Z,1025.13
2019-05-15T08:20:22.793Z,1025.08
2019-05-15T08:21:22.764Z,1025.09
2019-05-15T08:22:22.794Z,1025.00
2019-05-15T08:23:22.741Z,1025.09
2019-05-15T08:24:22.809Z,1025.05
2019-05-15T08:25:32.380Z,1025.01
2019-05-15T08:26:23.709Z,1025.06
2019-05-15T08:27:38.705Z,1024.96
2019-05-15T08:28:22.691Z,1024.98
2019-05-15T08:29:38.417Z,1025.01
2019-05-15T08:30:22.679Z,1025.01
2019-05-15T08:31:23.676Z,1024.99
2019-05-15T08:32:22.656Z,1024.96
2019-05-15T08:33:22.672Z,1025.03
2019-05-15T08:34:22.641Z,1025.01
2019-05-15T08:35:22.749Z,1025.03
2019-05-15T08:36:22.598Z,1024.97
2019-05-15T08:37:22.694Z,1025.04
2019-05-15T08:38:22.579Z,1025.00
2019-05-15T08:39:22.605Z,1024.97
2019-05-15T08:40:22.598Z,1024.95
2019-05-15T08:41:22.619Z,1024.87
2019-05-15T08:42:22.538Z,1024.93
2019-05-15T08:43:22.631Z,1024.83
2019-05-15T08:44:22.511Z,1024.94
2019-05-15T08:45:22.546Z,1024.86
2019-05-15T08:46:22.510Z,1024.85
2019-05-15T08:47:22.482Z,1024.85
2019-05-15T08:48:22.473Z,1024.83
2019-05-15T08:49:22.473Z,1024.83
2019-05-15T08:50:22.449Z,1024.87
2019-05-15T08:51:22.522Z,1024.82
2019-05-15T08:52:22.434Z,1024.83
2019-05-15T08:53:22.498Z,1024.80
2019-05-15T08:54:22.405Z,1024.76
2019-05-15T08:55:22.408Z,1024.74
2019-05-15T08:56:22.399Z,1024.79
2019-05-15T08:57:22.422Z,1024.76
2019-05-15T08:58:22.363Z,1024.79
2019-05-15T08:59:22.443Z,1024.79
2019-05-15T09:00:22.347Z,1024.80
2019-05-15T09:01:22.375Z,1024.76
2019-05-15T09:02:22.314Z,1024.78
2019-05-15T09:03:22.363Z,1024.74
2019-05-15T09:04:30.748Z,1024.77
2019-05-15T09:05:23.286Z,1024.78
2019-05-15T09:06:23.198Z,1024.73
2019-05-15T09:07:22.259Z,1024.77
2019-05-15T09:08:22.306Z,1024.73
2019-05-15T09:09:22.236Z,1024.66
2019-05-15T09:10:22.230Z,1024.59
2019-05-15T09:11:22.236Z,1024.63
2019-05-15T09:12:24.270Z,1024.61
2019-05-15T09:13:22.203Z,1024.63
2019-05-15T09:14:29.712Z,1024.54
2019-05-15T09:15:22.176Z,1024.51
2019-05-15T09:16:23.208Z,1024.51
2019-05-15T09:17:22.157Z,1024.51
2019-05-15T09:18:22.162Z,1024.54
2019-05-15T09:19:22.130Z,1024.52
2019-05-15T09:20:22.122Z,1024.43
2019-05-15T09:21:22.134Z,1024.47
2019-05-15T09:22:22.182Z,1024.51
2019-05-15T09:23:22.095Z,1024.50
2019-05-15T09:24:22.095Z,1024.47
2019-05-15T09:25:22.067Z,1024.44
2019-05-15T09:26:22.084Z,1024.41
2019-05-15T09:27:22.040Z,1024.43
2019-05-15T09:28:22.131Z,1024.46
2019-05-15T09:29:22.020Z,1024.36
2019-05-15T09:30:22.014Z,1024.30
2019-05-15T09:31:22.012Z,1024.39
2019-05-15T09:32:22.048Z,1024.41
2019-05-15T09:33:23.090Z,1024.35
2019-05-15T09:34:22.060Z,1024.31
2019-05-15T09:35:21.956Z,1024.18
2019-05-15T09:36:22.002Z,1024.21
2019-05-15T09:37:21.934Z,1024.29
2019-05-15T09:38:21.984Z,1024.35
2019-05-15T09:39:21.913Z,1024.30
2019-05-15T09:40:21.908Z,1024.24
2019-05-15T09:41:21.902Z,1024.34
2019-05-15T09:42:21.914Z,1024.24
2019-05-15T09:43:21.870Z,1024.24
2019-05-15T09:44:22.280Z,1024.25
2019-05-15T09:45:21.851Z,1024.18
2019-05-15T09:46:21.870Z,1024.29
2019-05-15T09:47:21.832Z,1024.21
2019-05-15T09:48:21.848Z,1024.09
2019-05-15T09:49:21.815Z,1024.12
2019-05-15T09:50:21.799Z,1024.18
2019-05-15T09:51:21.798Z,1024.18
2019-05-15T09:52:23.100Z,1024.16
2019-05-15T09:53:21.756Z,1024.14
2019-05-15T09:54:25.383Z,1024.14
2019-05-15T09:55:21.742Z,1024.17
2019-05-15T09:56:22.760Z,1024.14
2019-05-15T09:57:21.734Z,1024.12
2019-05-15T09:58:30.722Z,1024.03
2019-05-15T09:59:21.694Z,1024.09
2019-05-15T10:00:21.696Z,1024.04
2019-05-15T10:01:21.692Z,1023.89
2019-05-15T10:02:21.665Z,1023.76
2019-05-15T10:03:21.650Z,1023.88
2019-05-15T10:04:21.650Z,1023.84
2019-05-15T10:05:21.630Z,1023.93
2019-05-15T10:06:21.716Z,1024.03
2019-05-15T10:07:21.653Z,1023.92
2019-05-15T10:08:21.821Z,1023.99
2019-05-15T10:09:21.582Z,1023.80
2019-05-15T10:10:21.583Z,1023.74
2019-05-15T10:11:21.597Z,1023.97
2019-05-15T10:12:21.605Z,1023.93
2019-05-15T10:13:22.596Z,1023.98
2019-05-15T10:14:21.619Z,1023.72
2019-05-15T10:15:21.518Z,1023.70
2019-05-15T10:16:21.528Z,1023.64
2019-05-15T10:17:21.517Z,1023.60
2019-05-15T10:18:21.544Z,1023.89
2019-05-15T10:19:21.474Z,1023.67
2019-05-15T10:20:21.467Z,1023.92
2019-05-15T10:21:21.449Z,1023.66
2019-05-15T10:22:21.501Z,1023.63
2019-05-15T10:23:21.431Z,1023.84
2019-05-15T10:24:21.493Z,1023.77
2019-05-15T10:25:21.411Z,1023.66
2019-05-15T10:26:21.498Z,1023.77
2019-05-15T10:27:21.400Z,1023.81
2019-05-15T10:28:21.408Z,1023.78
2019-05-15T10:29:21.366Z,1023.68
2019-05-15T10:30:21.372Z,1023.77
2019-05-15T10:31:21.342Z,1023.61
2019-05-15T10:32:21.361Z,1023.77
2019-05-15T10:33:21.329Z,1023.79
2019-05-15T10:34:21.351Z,1023.72
2019-05-15T10:35:28.053Z,1023.65
2019-05-15T10:36:22.383Z,1023.74
2019-05-15T10:37:21.293Z,1023.58
2019-05-15T10:38:28.558Z,1023.53
2019-05-15T10:39:21.278Z,1023.57
2019-05-15T10:40:21.257Z,1023.63
2019-05-15T10:41:21.235Z,1023.55
2019-05-15T10:42:22.252Z,1023.56
2019-05-15T10:43:21.253Z,1023.44
2019-05-15T10:44:21.207Z,1023.43
2019-05-15T10:45:21.192Z,1023.47
2019-05-15T10:46:21.223Z,1023.41
2019-05-15T10:47:21.188Z,1023.38
2019-05-15T10:48:21.236Z,1023.30
2019-05-15T10:49:21.146Z,1023.41
2019-05-15T10:50:21.140Z,1023.57
2019-05-15T10:51:21.127Z,1023.60
2019-05-15T10:52:21.198Z,1023.52
2019-05-15T10:53:21.114Z,1023.50
2019-05-15T10:54:21.181Z,1023.46
2019-05-15T10:55:21.083Z,1023.18
2019-05-15T10:56:21.085Z,1023.22
2019-05-15T10:57:21.070Z,1023.47
2019-05-15T10:58:22.107Z,1023.12
2019-05-15T10:59:21.045Z,1023.24
2019-05-15T11:00:21.034Z,1023.13
2019-05-15T11:01:21.020Z,1023.33
2019-05-15T11:02:21.028Z,1023.10
2019-05-15T11:03:20.993Z,1023.14
2019-05-15T11:04:21.041Z,1023.11
2019-05-15T11:05:20.969Z,1023.17
2019-05-15T11:06:21.053Z,1023.28
2019-05-15T11:07:20.977Z,1023.38
2019-05-15T11:08:20.965Z,1023.27
2019-05-15T11:09:20.928Z,1023.37
2019-05-15T11:10:20.922Z,1023.26
2019-05-15T11:11:20.904Z,1023.27
2019-05-15T11:12:20.925Z,1023.31
2019-05-15T11:13:20.883Z,1023.24
2019-05-15T11:14:20.904Z,1023.21
2019-05-15T11:15:20.864Z,1023.31
2019-05-15T11:16:21.312Z,1023.29
2019-05-15T11:17:20.858Z,1023.32
2019-05-15T11:18:20.932Z,1023.34
2019-05-15T11:19:20.823Z,1023.16
2019-05-15T11:20:20.816Z,1023.23
2019-05-15T11:21:22.118Z,1023.25
2019-05-15T11:22:20.895Z,1023.17
2019-05-15T11:23:20.773Z,1023.16
2019-05-15T11:24:20.871Z,1023.14
2019-05-15T11:25:20.752Z,1023.15
2019-05-15T11:26:22.934Z,1023.16
2019-05-15T11:27:20.747Z,1022.96
2019-05-15T11:28:22.740Z,1023.17
2019-05-15T11:29:20.710Z,1023.21
2019-05-15T11:30:20.705Z,1022.95
2019-05-15T11:31:20.690Z,1022.91
2019-05-15T11:32:20.751Z,1022.94
2019-05-15T11:33:20.670Z,1022.86
2019-05-15T11:34:20.732Z,1022.83
2019-05-15T11:35:20.655Z,1023.10
2019-05-15T11:36:20.745Z,1023.07
2019-05-15T11:37:20.635Z,1022.95
2019-05-15T11:38:20.687Z,1023.00
2019-05-15T11:39:20.607Z,1022.96
2019-05-15T11:40:20.599Z,1023.01
2019-05-15T11:41:20.583Z,1023.03
2019-05-15T11:42:20.686Z,1023.14
2019-05-15T11:43:20.587Z,1023.04
2019-05-15T11:44:20.601Z,1023.07
2019-05-15T11:45:20.537Z,1023.00
2019-05-15T11:46:20.620Z,1023.11
2019-05-15T11:47:20.514Z,1023.01
2019-05-15T11:48:20.992Z,1022.95
2019-05-15T11:49:20.496Z,1023.03
2019-05-15T11:50:21.049Z,1022.64
2019-05-15T11:51:20.475Z,1022.91
2019-05-15T11:52:20.552Z,1022.53
2019-05-15T11:53:20.483Z,1022.55
2019-05-15T11:54:20.460Z,1022.57
2019-05-15T11:55:20.434Z,1022.93
2019-05-15T11:56:20.477Z,1022.89
2019-05-15T11:57:20.418Z,1022.93
2019-05-15T11:58:20.530Z,1022.56
2019-05-15T11:59:20.387Z,1022.87
2019-05-15T12:00:26.796Z,1022.66
2019-05-15T12:01:21.367Z,1022.55
2019-05-15T12:02:20.415Z,1022.61
2019-05-15T12:03:20.375Z,1022.69
2019-05-15T12:04:30.230Z,1022.61
2019-05-15T12:05:21.321Z,1022.92